createdAt,value
2023-02-06T00:00:06.572Z,6.00
2023-02-06T00:02:32.825Z,5.60
2023-02-06T00:04:59.044Z,6.50
2023-02-06T00:07:25.245Z,6.68
2023-02-06T00:09:51.445Z,6.40
2023-02-06T00:12:17.769Z,6.15
2023-02-06T00:14:43.989Z,6.43
2023-02-06T00:17:10.190Z,7.13
2023-02-06T00:19:37.956Z,6.70
2023-02-06T00:22:04.228Z,6.85
2023-02-06T00:24:30.434Z,6.82
2023-02-06T00:26:56.985Z,6.72
2023-02-06T00:29:23.278Z,6.35
2023-02-06T00:31:49.538Z,6.22
2023-02-06T00:34:15.812Z,6.05
2023-02-06T00:36:42.047Z,6.72
2023-02-06T00:39:08.282Z,7.53
2023-02-06T00:41:34.512Z,6.85
2023-02-06T00:44:01.138Z,6.57
2023-02-06T00:46:27.386Z,6.53
2023-02-06T00:48:53.675Z,7.43
2023-02-06T00:51:19.913Z,7.43
2023-02-06T00:53:46.149Z,6.50
2023-02-06T00:56:12.409Z,7.55
2023-02-06T00:58:38.621Z,6.90
2023-02-06T01:01:04.851Z,7.05
2023-02-06T01:03:31.101Z,7.25
2023-02-06T01:05:57.556Z,6.45
2023-02-06T01:08:23.790Z,7.40
2023-02-06T01:10:50.016Z,7.95
2023-02-06T01:13:16.295Z,7.25
2023-02-06T01:15:42.523Z,7.78
2023-02-06T01:18:08.770Z,7.38
2023-02-06T01:20:35.183Z,7.07
2023-02-06T01:23:01.418Z,7.72
2023-02-06T01:25:27.676Z,7.97
2023-02-06T01:27:53.924Z,8.25
2023-02-06T01:30:20.217Z,7.63
2023-02-06T01:32:46.491Z,7.78
2023-02-06T01:35:12.958Z,8.57
2023-02-06T01:37:39.472Z,9.50
2023-02-06T01:40:07.376Z,9.38
2023-02-06T01:42:34.454Z,8.82
2023-02-06T01:45:19.156Z,10.00
2023-02-06T01:47:45.410Z,9.27
2023-02-06T01:50:11.837Z,9.27
2023-02-06T01:52:38.177Z,9.98
2023-02-06T01:55:04.972Z,9.63
2023-02-06T01:57:31.802Z,10.13
2023-02-06T02:00:00.006Z,10.02
2023-02-06T02:02:27.306Z,10.93
2023-02-06T02:04:54.105Z,9.88
2023-02-06T02:09:46.492Z,9.35
2023-02-06T02:12:13.197Z,9.82
2023-02-06T02:14:40.643Z,10.68
2023-02-06T02:17:15.884Z,10.13
2023-02-06T02:19:57.594Z,9.27
2023-02-06T02:22:32.348Z,10.68
2023-02-06T02:25:01.736Z,9.93
2023-02-06T02:27:46.950Z,11.68
2023-02-06T02:30:22.536Z,11.85
2023-02-06T02:33:00.624Z,10.80
2023-02-06T02:35:29.263Z,11.50
2023-02-06T02:38:06.066Z,12.32
2023-02-06T02:40:43.271Z,14.38
2023-02-06T02:43:22.075Z,11.43
2023-02-06T02:45:51.902Z,11.73
2023-02-06T02:48:20.892Z,11.38
2023-02-06T02:50:47.631Z,11.10
2023-02-06T02:53:14.864Z,11.25
2023-02-06T02:55:41.631Z,10.65
2023-02-06T02:58:10.337Z,11.07
2023-02-06T03:00:41.442Z,11.35
2023-02-06T03:03:08.643Z,10.73
2023-02-06T03:05:37.495Z,10.45
2023-02-06T03:08:30.390Z,10.73
2023-02-06T03:11:03.207Z,11.07
2023-02-06T03:13:31.820Z,10.30
2023-02-06T03:16:04.877Z,10.73
2023-02-06T03:18:31.196Z,10.57
2023-02-06T03:20:58.739Z,11.10
2023-02-06T03:23:29.086Z,11.13
2023-02-06T03:25:58.246Z,10.45
2023-02-06T03:28:27.721Z,10.80
2023-02-06T03:30:55.631Z,10.80
2023-02-06T03:33:25.032Z,11.95
2023-02-06T03:35:51.340Z,10.55
2023-02-06T03:38:17.979Z,10.18
2023-02-06T03:40:47.227Z,10.93
2023-02-06T03:43:18.546Z,10.10
2023-02-06T03:45:49.953Z,10.77
2023-02-06T03:48:24.157Z,11.05
2023-02-06T03:50:52.488Z,11.13
2023-02-06T03:53:19.193Z,11.13
2023-02-06T03:55:46.344Z,10.45
2023-02-06T03:58:13.906Z,9.68
2023-02-06T04:00:41.480Z,9.95
2023-02-06T04:03:08.842Z,10.38
2023-02-06T04:05:35.301Z,10.07
2023-02-06T04:08:01.741Z,10.75
2023-02-06T04:10:27.991Z,10.02
2023-02-06T04:12:54.222Z,9.20
2023-02-06T04:15:20.647Z,9.45
2023-02-06T04:17:59.279Z,10.30
2023-02-06T04:20:26.008Z,9.25
2023-02-06T04:22:52.270Z,9.77
2023-02-06T04:25:18.564Z,10.15
2023-02-06T04:27:44.861Z,10.52
2023-02-06T04:30:11.479Z,10.50
2023-02-06T04:32:37.808Z,9.40
2023-02-06T04:35:04.446Z,9.90
2023-02-06T04:37:30.694Z,10.02
2023-02-06T04:39:56.971Z,10.57
2023-02-06T04:42:23.209Z,11.45
2023-02-06T04:44:49.441Z,10.68
2023-02-06T04:47:15.677Z,11.70
2023-02-06T04:49:41.882Z,11.43
2023-02-06T04:52:08.160Z,11.68
2023-02-06T04:54:34.412Z,12.65
2023-02-06T04:57:00.669Z,14.13
2023-02-06T04:59:26.926Z,14.43
2023-02-06T05:01:53.278Z,12.82
2023-02-06T05:04:19.513Z,11.35
2023-02-06T05:06:45.741Z,11.80
2023-02-06T05:09:11.991Z,11.18
2023-02-06T05:11:38.213Z,11.35
2023-02-06T05:14:04.455Z,10.32
2023-02-06T05:16:30.708Z,11.65
2023-02-06T05:18:57.409Z,12.30
2023-02-06T05:21:24.268Z,12.48
2023-02-06T05:26:16.748Z,10.85
2023-02-06T05:28:43.014Z,12.18
2023-02-06T05:31:09.480Z,11.40
2023-02-06T05:33:35.790Z,12.05
2023-02-06T05:36:06.388Z,12.77
2023-02-06T05:38:33.303Z,13.85
2023-02-06T05:40:59.652Z,12.98
2023-02-06T05:43:25.945Z,12.95
2023-02-06T05:45:52.223Z,12.32
2023-02-06T05:48:18.490Z,12.40
2023-02-06T05:50:44.738Z,13.20
2023-02-06T05:53:11.023Z,12.48
2023-02-06T05:55:37.537Z,13.45
2023-02-06T05:58:06.270Z,13.00
2023-02-06T06:00:32.715Z,13.48
2023-02-06T06:02:58.982Z,17.05
2023-02-06T06:05:26.821Z,15.45
2023-02-06T06:07:53.094Z,12.90
2023-02-06T06:10:19.374Z,13.98
2023-02-06T06:12:45.624Z,13.25
2023-02-06T06:15:11.886Z,14.23
2023-02-06T06:17:38.150Z,13.27
2023-02-06T06:20:04.849Z,12.15
2023-02-06T06:22:31.182Z,12.55
2023-02-06T06:24:57.440Z,11.70
2023-02-06T06:27:23.714Z,12.15
2023-02-06T06:29:49.977Z,11.98
2023-02-06T06:32:16.185Z,13.65
2023-02-06T06:34:42.440Z,17.33
2023-02-06T06:37:08.671Z,16.02
2023-02-06T06:39:34.964Z,12.70
2023-02-06T06:42:01.309Z,12.43
2023-02-06T06:44:27.582Z,11.82
2023-02-06T06:46:53.859Z,13.00
2023-02-06T06:49:20.090Z,12.13
2023-02-06T06:51:46.409Z,13.27
2023-02-06T06:54:12.677Z,13.32
2023-02-06T06:56:38.992Z,11.93
2023-02-06T06:59:05.290Z,12.23
2023-02-06T07:01:31.550Z,11.70
2023-02-06T07:04:00.684Z,12.73
2023-02-06T07:06:27.131Z,12.43
2023-02-06T07:08:53.381Z,12.02
2023-02-06T07:11:19.711Z,12.20
2023-02-06T07:13:45.987Z,11.48
2023-02-06T07:16:12.479Z,11.73
2023-02-06T07:18:40.397Z,11.73
2023-02-06T07:21:08.586Z,12.18
2023-02-06T07:23:38.747Z,10.65
2023-02-06T07:26:05.063Z,11.63
2023-02-06T07:28:32.432Z,10.85
2023-02-06T07:31:02.372Z,13.07
2023-02-06T07:33:28.990Z,11.65
2023-02-06T07:35:55.315Z,12.00
2023-02-06T07:38:21.756Z,11.57
2023-02-06T07:40:48.030Z,11.75
2023-02-06T07:43:14.370Z,11.77
2023-02-06T07:45:40.672Z,11.40
2023-02-06T07:48:07.284Z,11.55
2023-02-06T07:50:33.765Z,11.70
2023-02-06T07:53:00.130Z,11.55
2023-02-06T07:55:26.697Z,12.75
2023-02-06T07:57:54.040Z,13.50
2023-02-06T08:00:20.332Z,12.70
2023-02-06T08:02:46.654Z,12.18
2023-02-06T08:05:12.952Z,13.30
2023-02-06T08:07:39.237Z,13.10
2023-02-06T08:10:05.681Z,12.15
2023-02-06T08:12:32.000Z,10.65
2023-02-06T08:14:58.233Z,12.10
2023-02-06T08:17:24.596Z,12.10
2023-02-06T08:19:50.816Z,11.82
2023-02-06T08:22:17.019Z,12.18
2023-02-06T08:24:43.386Z,10.75
2023-02-06T08:27:09.645Z,10.85
2023-02-06T08:29:42.406Z,11.73
2023-02-06T08:32:09.613Z,11.45
2023-02-06T08:34:35.970Z,11.93
2023-02-06T08:37:02.246Z,10.45
2023-02-06T08:39:28.672Z,11.05
2023-02-06T08:41:55.120Z,11.57
2023-02-06T08:44:21.366Z,10.93
2023-02-06T08:46:48.726Z,11.32
2023-02-06T08:49:17.430Z,11.43
2023-02-06T08:51:43.828Z,12.20
2023-02-06T08:54:15.958Z,11.35
2023-02-06T08:56:42.537Z,10.93
2023-02-06T08:59:10.623Z,11.60
2023-02-06T09:01:37.666Z,10.60
2023-02-06T09:04:06.328Z,11.60
2023-02-06T09:06:34.219Z,11.55
2023-02-06T09:09:00.498Z,11.77
2023-02-06T09:11:27.338Z,12.18
2023-02-06T09:16:20.465Z,11.80
2023-02-06T09:18:47.450Z,11.90
2023-02-06T09:21:14.974Z,12.43
2023-02-06T09:23:43.659Z,12.25
2023-02-06T09:26:10.606Z,12.10
2023-02-06T09:28:36.895Z,11.55
2023-02-06T09:31:03.484Z,11.57
2023-02-06T09:33:29.835Z,12.23
2023-02-06T09:36:10.341Z,11.23
2023-02-06T09:38:38.505Z,11.93
2023-02-06T09:41:10.667Z,12.48
2023-02-06T09:43:37.429Z,11.52
2023-02-06T09:46:05.864Z,10.90
2023-02-06T09:48:36.475Z,11.52
2023-02-06T09:51:09.223Z,13.57
2023-02-06T09:53:50.832Z,12.05
2023-02-06T09:56:32.465Z,16.20
2023-02-06T09:59:05.669Z,14.05
2023-02-06T10:01:39.970Z,29.23
2023-02-06T10:04:14.433Z,13.52
2023-02-06T10:06:40.666Z,12.02
2023-02-06T10:09:13.996Z,13.27
2023-02-06T10:11:45.006Z,15.35
2023-02-06T10:14:18.922Z,17.23
2023-02-06T10:16:54.574Z,13.60
2023-02-06T10:19:39.468Z,10.75
2023-02-06T10:22:09.083Z,13.00
2023-02-06T10:24:44.366Z,8.45
2023-02-06T10:27:12.123Z,7.32
2023-02-06T10:29:40.414Z,8.10
2023-02-06T10:32:27.843Z,6.90
2023-02-06T10:34:54.104Z,7.45
2023-02-06T10:37:25.628Z,6.63
2023-02-06T10:40:10.704Z,5.05
2023-02-06T10:42:55.954Z,4.55
2023-02-06T10:45:31.382Z,3.90
2023-02-06T10:48:01.792Z,5.30
2023-02-06T10:50:37.054Z,4.97
2023-02-06T10:53:12.628Z,4.68
2023-02-06T10:55:46.680Z,4.10
2023-02-06T10:58:31.121Z,4.15
2023-02-06T11:00:59.210Z,4.90
2023-02-06T11:03:30.359Z,5.10
2023-02-06T11:05:57.104Z,5.40
2023-02-06T11:08:28.146Z,15.57
2023-02-06T11:10:54.655Z,5.35
2023-02-06T11:13:33.028Z,4.68
2023-02-06T11:16:03.915Z,5.05
2023-02-06T11:18:33.086Z,4.53
2023-02-06T11:20:59.507Z,5.30
2023-02-06T11:23:27.072Z,9.77
2023-02-06T11:26:14.085Z,10.07
2023-02-06T11:28:52.435Z,10.50
2023-02-06T11:31:19.722Z,15.95
2023-02-06T11:33:46.012Z,20.65
2023-02-06T11:36:38.783Z,19.85
2023-02-06T11:39:06.873Z,12.65
2023-02-06T11:41:33.435Z,20.35
2023-02-06T11:44:06.379Z,17.73
2023-02-06T11:46:37.202Z,14.18
2023-02-06T11:49:25.043Z,10.82
2023-02-06T11:51:51.750Z,9.48
2023-02-06T11:54:22.375Z,9.45
2023-02-06T11:56:56.151Z,8.60
2023-02-06T11:59:24.206Z,7.75
2023-02-06T12:01:50.549Z,6.88
2023-02-06T12:04:31.590Z,8.95
2023-02-06T12:07:04.567Z,7.70
2023-02-06T12:09:30.883Z,8.63
2023-02-06T12:12:03.691Z,9.52
2023-02-06T12:14:46.297Z,5.85
2023-02-06T12:17:19.849Z,3.85
2023-02-06T12:19:48.553Z,4.90
2023-02-06T12:22:21.036Z,5.55
2023-02-06T12:24:49.039Z,5.57
2023-02-06T12:27:18.326Z,9.93
2023-02-06T12:29:49.079Z,6.43
2023-02-06T12:32:21.097Z,12.43
2023-02-06T12:34:55.871Z,5.97
2023-02-06T12:37:40.734Z,5.38
2023-02-06T12:40:24.565Z,5.07
2023-02-06T12:42:56.903Z,5.22
2023-02-06T12:45:27.356Z,6.20
2023-02-06T12:47:55.853Z,5.50
2023-02-06T12:50:22.047Z,6.85
2023-02-06T12:53:02.627Z,6.22
2023-02-06T12:55:35.248Z,6.10
2023-02-06T12:58:02.325Z,4.85
2023-02-06T13:00:41.779Z,5.00
2023-02-06T13:03:28.591Z,4.53
2023-02-06T13:06:00.206Z,4.20
2023-02-06T13:08:28.798Z,4.72
2023-02-06T13:11:00.147Z,5.60
2023-02-06T13:13:34.641Z,6.25
2023-02-06T13:16:00.982Z,5.32
2023-02-06T13:18:34.859Z,5.32
2023-02-06T13:21:18.383Z,5.65
2023-02-06T13:24:02.933Z,4.95
2023-02-06T13:26:48.778Z,4.57
2023-02-06T13:29:42.357Z,5.07
2023-02-06T13:32:08.551Z,6.90
2023-02-06T13:34:34.877Z,5.68
2023-02-06T13:37:18.996Z,7.97
2023-02-06T13:39:48.544Z,4.35
2023-02-06T13:42:33.934Z,4.82
2023-02-06T13:45:02.990Z,5.20
2023-02-06T13:47:45.075Z,4.50
2023-02-06T13:50:27.888Z,6.15
2023-02-06T13:53:03.233Z,5.53
2023-02-06T13:55:35.470Z,6.25
2023-02-06T13:58:01.858Z,6.65
2023-02-06T14:00:30.299Z,8.43
2023-02-06T14:03:02.730Z,6.50
2023-02-06T14:05:34.228Z,7.25
2023-02-06T14:08:20.611Z,5.95
2023-02-06T14:11:18.084Z,5.82
2023-02-06T14:13:56.405Z,4.70
2023-02-06T14:16:34.879Z,5.38
2023-02-06T14:19:01.084Z,5.93
2023-02-06T14:21:50.684Z,4.30
2023-02-06T14:24:35.980Z,5.15
2023-02-06T14:27:09.371Z,4.43
2023-02-06T14:29:45.851Z,4.80
2023-02-06T14:32:27.838Z,4.82
2023-02-06T14:35:06.361Z,4.45
2023-02-06T14:37:52.007Z,4.10
2023-02-06T14:40:25.891Z,3.40
2023-02-06T14:42:53.190Z,6.65
2023-02-06T14:45:41.582Z,4.78
2023-02-06T14:48:16.871Z,4.47
2023-02-06T14:50:46.179Z,4.35
2023-02-06T14:53:30.987Z,7.45
2023-02-06T14:56:17.479Z,4.95
2023-02-06T14:58:46.259Z,7.03
2023-02-06T15:01:14.709Z,5.85
2023-02-06T15:03:42.160Z,5.18
2023-02-06T15:06:28.667Z,4.25
2023-02-06T15:08:54.880Z,5.30
2023-02-06T15:11:23.302Z,5.88
2023-02-06T15:13:51.147Z,5.45
2023-02-06T15:16:17.446Z,4.50
2023-02-06T15:18:43.956Z,6.15
2023-02-06T15:21:13.370Z,3.67
2023-02-06T15:23:42.394Z,4.32
2023-02-06T15:26:29.724Z,3.58
2023-02-06T15:29:00.509Z,4.43
2023-02-06T15:31:27.370Z,5.57
2023-02-06T15:36:21.500Z,3.63
2023-02-06T15:38:47.942Z,3.63
2023-02-06T15:41:14.474Z,3.67
2023-02-06T15:43:41.414Z,3.58
2023-02-06T15:48:33.855Z,3.30
2023-02-06T15:51:18.750Z,2.60
2023-02-06T15:53:48.236Z,3.10
2023-02-06T15:56:22.840Z,3.17
2023-02-06T15:58:53.583Z,3.50
2023-02-06T16:01:20.484Z,3.53
2023-02-06T16:06:14.300Z,3.35
2023-02-06T16:08:41.639Z,3.10
2023-02-06T16:11:28.107Z,3.38
2023-02-06T16:13:54.524Z,4.28
2023-02-06T16:16:22.322Z,3.67
2023-02-06T16:18:51.896Z,3.67
2023-02-06T16:21:18.306Z,4.53
2023-02-06T16:23:50.717Z,3.85
2023-02-06T16:26:16.960Z,4.75
2023-02-06T16:29:06.567Z,4.35
2023-02-06T16:31:35.038Z,3.22
2023-02-06T16:34:04.105Z,4.30
2023-02-06T16:36:31.937Z,4.10
2023-02-06T16:39:04.127Z,4.90
2023-02-06T16:41:40.551Z,5.68
2023-02-06T16:44:10.208Z,5.05
2023-02-06T16:46:36.449Z,4.40
2023-02-06T16:49:02.701Z,4.30
2023-02-06T16:51:29.924Z,4.97
2023-02-06T16:53:57.189Z,5.18
2023-02-06T16:56:23.536Z,4.90
2023-02-06T16:58:49.813Z,5.93
2023-02-06T17:01:20.718Z,17.20
2023-02-06T17:03:46.943Z,10.00
2023-02-06T17:06:14.891Z,7.10
2023-02-06T17:08:41.662Z,9.55
2023-02-06T17:11:07.965Z,6.43
2023-02-06T17:13:34.190Z,5.85
2023-02-06T17:16:00.781Z,5.43
2023-02-06T17:18:27.041Z,5.10
2023-02-06T17:20:53.381Z,4.75
2023-02-06T17:23:19.868Z,4.55
2023-02-06T17:25:46.210Z,4.05
2023-02-06T17:28:16.808Z,4.90
2023-02-06T17:30:43.605Z,6.07
2023-02-06T17:33:10.262Z,5.70
2023-02-06T17:35:37.034Z,4.32
2023-02-06T17:38:03.981Z,4.22
2023-02-06T17:40:31.316Z,5.22
2023-02-06T17:42:58.162Z,5.55
2023-02-06T17:47:50.870Z,6.40
2023-02-06T17:50:18.358Z,5.78
2023-02-06T17:52:44.653Z,6.32
2023-02-06T17:55:10.893Z,7.55
2023-02-06T17:57:37.562Z,7.13
2023-02-06T18:00:04.763Z,9.18
2023-02-06T18:02:31.052Z,5.65
2023-02-06T18:04:58.694Z,5.72
2023-02-06T18:07:24.921Z,4.90
2023-02-06T18:09:51.149Z,4.30
2023-02-06T18:12:17.434Z,3.40
2023-02-06T18:14:44.005Z,4.10
2023-02-06T18:17:10.541Z,3.72
2023-02-06T18:19:42.049Z,3.83
2023-02-06T18:22:09.506Z,5.03
2023-02-06T18:24:35.773Z,5.72
2023-02-06T18:27:03.173Z,4.20
2023-02-06T18:29:43.453Z,4.30
2023-02-06T18:32:14.748Z,3.88
2023-02-06T18:34:41.069Z,4.18
2023-02-06T18:37:07.669Z,6.22
2023-02-06T18:39:34.261Z,7.63
2023-02-06T18:42:19.570Z,4.80
2023-02-06T18:44:45.831Z,4.13
2023-02-06T18:47:12.878Z,3.97
2023-02-06T18:49:39.186Z,4.60
2023-02-06T18:52:05.761Z,5.28
2023-02-06T18:54:32.537Z,7.03
2023-02-06T18:56:58.814Z,5.93
2023-02-06T18:59:25.071Z,4.85
2023-02-06T19:01:54.202Z,4.28
2023-02-06T19:04:21.063Z,3.72
2023-02-06T19:09:13.779Z,3.05
2023-02-06T19:11:40.970Z,3.13
2023-02-06T19:14:08.222Z,3.53
2023-02-06T19:16:37.585Z,3.88
2023-02-06T19:19:04.709Z,3.70
2023-02-06T19:21:30.943Z,5.38
2023-02-06T19:23:58.963Z,4.53
2023-02-06T19:26:25.806Z,4.30
2023-02-06T19:31:23.695Z,10.82
2023-02-06T19:33:51.035Z,7.97
2023-02-06T19:36:17.742Z,7.65
2023-02-06T19:38:44.019Z,6.40
2023-02-06T19:41:11.910Z,4.15
2023-02-06T19:43:38.507Z,4.60
2023-02-06T19:46:06.088Z,4.05
2023-02-06T19:48:32.571Z,4.30
2023-02-06T19:51:05.704Z,3.75
2023-02-06T19:53:35.494Z,3.95
2023-02-06T19:56:02.643Z,7.28
2023-02-06T19:58:30.956Z,5.45
2023-02-06T20:00:58.119Z,6.45
2023-02-06T20:03:24.731Z,5.65
2023-02-06T20:05:51.025Z,4.53
2023-02-06T20:08:17.505Z,5.13
2023-02-06T20:10:43.739Z,4.20
2023-02-06T20:13:10.036Z,4.65
2023-02-06T20:15:39.316Z,4.47
2023-02-06T20:18:05.669Z,4.50
2023-02-06T20:20:35.513Z,3.42
2023-02-06T20:23:02.062Z,4.75
2023-02-06T20:25:28.803Z,4.40
2023-02-06T20:30:22.690Z,4.60
2023-02-06T20:32:48.923Z,3.67
2023-02-06T20:35:15.233Z,4.75
2023-02-06T20:37:41.498Z,4.32
2023-02-06T20:40:07.976Z,8.13
2023-02-06T20:42:34.617Z,5.05
2023-02-06T20:45:00.868Z,4.70
2023-02-06T20:47:27.345Z,3.90
2023-02-06T20:49:53.674Z,3.70
2023-02-06T20:52:20.100Z,3.80
2023-02-06T20:54:46.434Z,3.90
2023-02-06T20:57:12.675Z,3.67
2023-02-06T20:59:38.912Z,3.25
2023-02-06T21:02:05.248Z,3.53
2023-02-06T21:04:32.874Z,3.13
2023-02-06T21:06:59.253Z,3.50
2023-02-06T21:09:25.628Z,3.67
2023-02-06T21:11:51.879Z,3.17
2023-02-06T21:14:19.080Z,3.45
2023-02-06T21:16:45.701Z,4.35
2023-02-06T21:19:13.600Z,4.28
2023-02-06T21:21:40.047Z,4.82
2023-02-06T21:24:06.514Z,4.40
2023-02-06T21:26:33.214Z,4.13
2023-02-06T21:28:59.886Z,3.97
2023-02-06T21:31:32.989Z,3.90
2023-02-06T21:34:06.980Z,4.07
2023-02-06T21:36:34.270Z,3.72
2023-02-06T21:39:00.940Z,4.00
2023-02-06T21:41:27.718Z,4.35
2023-02-06T21:46:20.362Z,3.20
2023-02-06T21:48:50.518Z,4.00
2023-02-06T21:51:17.387Z,4.20
2023-02-06T21:56:30.101Z,4.45
2023-02-06T21:58:56.531Z,4.70
2023-02-06T22:01:24.869Z,4.78
2023-02-06T22:03:51.486Z,5.03
2023-02-06T22:06:19.876Z,10.00
2023-02-06T22:08:48.199Z,9.00
2023-02-06T22:11:15.749Z,7.93
2023-02-06T22:13:42.670Z,7.80
2023-02-06T22:16:09.514Z,7.13
2023-02-06T22:21:03.011Z,5.13
2023-02-06T22:23:29.263Z,6.80
2023-02-06T22:25:55.518Z,14.55
2023-02-06T22:28:21.753Z,6.95
2023-02-06T22:30:49.012Z,8.13
2023-02-06T22:33:15.283Z,8.88
2023-02-06T22:35:41.532Z,4.90
2023-02-06T22:38:08.107Z,5.18
2023-02-06T22:40:37.431Z,4.40
2023-02-06T22:43:03.669Z,7.28
2023-02-06T22:45:30.129Z,8.52
2023-02-06T22:47:56.353Z,5.18
2023-02-06T22:50:24.547Z,5.28
2023-02-06T22:53:09.268Z,4.60
2023-02-06T22:55:57.599Z,5.13
2023-02-06T22:58:23.823Z,6.82
2023-02-06T23:00:50.101Z,7.88
2023-02-06T23:03:16.502Z,12.38
2023-02-06T23:05:42.739Z,11.05
2023-02-06T23:08:08.962Z,10.45
2023-02-06T23:10:35.194Z,15.43
2023-02-06T23:13:01.495Z,9.93
2023-02-06T23:15:27.740Z,8.25
2023-02-06T23:17:54.035Z,6.25
2023-02-06T23:20:20.304Z,5.82
2023-02-06T23:22:46.542Z,4.50
2023-02-06T23:25:12.846Z,5.43
2023-02-06T23:27:39.140Z,6.40
2023-02-06T23:30:05.730Z,3.95
2023-02-06T23:32:31.961Z,3.10
2023-02-06T23:34:59.425Z,3.88
2023-02-06T23:37:25.658Z,4.10
2023-02-06T23:39:51.895Z,3.78
2023-02-06T23:42:18.313Z,5.05
2023-02-06T23:44:44.538Z,5.18
2023-02-06T23:47:10.926Z,3.78
2023-02-06T23:49:37.157Z,4.28
2023-02-06T23:52:03.423Z,4.50
2023-02-06T23:54:29.631Z,4.03
2023-02-06T23:56:55.866Z,4.80
2023-02-06T23:59:22.149Z,4.68
